createdAt,value
2022-09-13T00:03:07.418Z,64.48
2022-09-13T00:08:08.078Z,63.78
2022-09-13T00:13:08.401Z,62.98
2022-09-13T00:18:07.146Z,63.14
2022-09-13T00:23:07.150Z,63.29
2022-09-13T00:28:06.209Z,64.15
2022-09-13T00:33:04.981Z,64.72
2022-09-13T00:38:03.655Z,64.88
2022-09-13T00:43:03.645Z,63.77
2022-09-13T00:48:06.469Z,63.85
2022-09-13T00:53:10.799Z,64.21
2022-09-13T00:58:14.456Z,66.05
2022-09-13T01:03:16.257Z,65.92
2022-09-13T01:08:23.104Z,66.14
2022-09-13T01:13:25.937Z,66.26
2022-09-13T01:18:25.085Z,67.21
2022-09-13T01:24:00.525Z,67.08
2022-09-13T01:29:37.451Z,66.75
2022-09-13T01:34:52.635Z,66.78
2022-09-13T01:40:07.546Z,68.00
2022-09-13T01:45:19.200Z,67.90
2022-09-13T01:50:23.743Z,66.59
2022-09-13T01:55:30.041Z,66.75
2022-09-13T02:00:32.253Z,68.07
2022-09-13T02:05:38.861Z,67.95
2022-09-13T02:10:42.834Z,66.65
2022-09-13T02:15:46.069Z,65.17
2022-09-13T02:20:50.557Z,64.60
2022-09-13T02:25:52.369Z,64.27
2022-09-13T02:30:54.464Z,64.19
2022-09-13T02:36:01.147Z,63.98
2022-09-13T02:41:04.254Z,63.82
2022-09-13T02:46:23.339Z,63.75
2022-09-13T02:51:31.596Z,64.21
2022-09-13T02:56:39.735Z,63.65
2022-09-13T03:01:41.206Z,63.71
2022-09-13T03:06:42.063Z,63.68
2022-09-13T03:12:01.773Z,63.11
2022-09-13T03:17:20.427Z,63.35
2022-09-13T03:22:56.051Z,63.58
2022-09-13T03:28:07.003Z,63.29
2022-09-13T03:33:14.010Z,63.16
2022-09-13T03:38:21.003Z,62.83
2022-09-13T03:43:25.776Z,62.95
2022-09-13T03:48:24.932Z,62.86
2022-09-13T03:53:28.445Z,62.82
2022-09-13T03:58:27.729Z,63.09
2022-09-13T04:03:26.777Z,63.20
2022-09-13T04:08:26.842Z,62.83
2022-09-13T04:13:26.047Z,62.91
2022-09-13T04:18:24.726Z,62.59
2022-09-13T04:23:23.374Z,62.50
2022-09-13T04:28:23.772Z,62.76
2022-09-13T04:33:23.324Z,62.82
2022-09-13T04:38:21.905Z,62.79
2022-09-13T04:43:20.573Z,62.60
2022-09-13T04:48:20.658Z,62.74
2022-09-13T04:53:19.339Z,62.25
2022-09-13T04:58:18.867Z,63.50
2022-09-13T05:03:17.540Z,63.58
2022-09-13T05:08:20.128Z,64.06
2022-09-13T05:13:18.527Z,64.01
2022-09-13T05:18:17.169Z,64.13
2022-09-13T05:23:17.160Z,65.14
2022-09-13T05:28:15.817Z,65.21
2022-09-13T05:33:14.497Z,65.14
2022-09-13T05:38:13.311Z,67.17
2022-09-13T05:43:13.471Z,65.61
2022-09-13T05:48:12.445Z,65.63
2022-09-13T05:53:11.002Z,65.82
2022-09-13T05:58:09.811Z,66.03
2022-09-13T06:03:10.636Z,67.56
2022-09-13T06:08:09.365Z,67.13
2022-09-13T06:13:08.214Z,68.76
2022-09-13T06:18:06.922Z,68.74
2022-09-13T06:23:07.071Z,68.11
2022-09-13T06:28:05.918Z,68.42
2022-09-13T06:33:04.870Z,68.91
2022-09-13T06:38:03.700Z,68.61
2022-09-13T06:43:04.017Z,67.31
2022-09-13T06:48:03.586Z,68.36
2022-09-13T06:53:02.682Z,69.48
2022-09-13T06:58:01.575Z,69.19
2022-09-13T07:03:02.340Z,72.89
2022-09-13T07:08:01.434Z,72.53
2022-09-13T07:13:00.516Z,71.56
2022-09-13T07:17:59.721Z,72.53
2022-09-13T07:23:00.107Z,70.38
2022-09-13T07:27:59.129Z,70.02
2022-09-13T07:32:58.114Z,69.44
2022-09-13T07:37:57.194Z,68.83
2022-09-13T07:42:57.885Z,68.39
2022-09-13T07:47:58.454Z,67.30
2022-09-13T07:52:57.639Z,68.04
2022-09-13T07:57:59.766Z,66.31
2022-09-13T08:03:01.393Z,66.83
2022-09-13T08:08:07.824Z,66.49
2022-09-13T08:13:24.294Z,64.63
2022-09-13T08:18:24.056Z,63.12
2022-09-13T08:23:23.958Z,62.48
2022-09-13T08:28:27.868Z,62.94
2022-09-13T08:33:46.408Z,61.06
2022-09-13T08:38:50.207Z,59.32
2022-09-13T08:44:00.567Z,57.64
2022-09-13T08:49:05.997Z,56.17
2022-09-13T08:54:25.250Z,52.83
2022-09-13T09:00:23.525Z,48.55
2022-09-13T09:06:28.086Z,44.10
2022-09-13T09:11:42.970Z,41.44
2022-09-13T09:17:23.788Z,38.78
2022-09-13T09:22:52.443Z,37.40
2022-09-13T09:28:36.669Z,35.80
2022-09-13T09:34:31.900Z,34.63
2022-09-13T09:45:52.165Z,29.64
2022-09-13T09:51:04.859Z,29.41
2022-09-13T09:56:44.371Z,27.81
2022-09-13T10:01:48.255Z,27.44
2022-09-13T10:06:47.838Z,27.38
2022-09-13T10:12:04.247Z,26.69
2022-09-13T10:17:26.768Z,25.49
2022-09-13T10:22:34.741Z,25.84
2022-09-13T10:27:44.113Z,24.75
2022-09-13T10:33:06.775Z,24.55
2022-09-13T10:39:16.650Z,24.85
2022-09-13T10:44:31.500Z,23.59
2022-09-13T10:49:37.954Z,23.71
2022-09-13T10:54:50.717Z,23.06
2022-09-13T11:00:00.647Z,23.31
2022-09-13T11:05:38.757Z,22.91
2022-09-13T11:10:49.640Z,22.91
2022-09-13T11:22:59.686Z,21.71
2022-09-13T11:41:28.255Z,22.91
2022-09-13T11:46:34.442Z,22.17
2022-09-13T11:52:14.160Z,20.93
2022-09-13T11:58:02.066Z,20.67
2022-09-13T12:03:08.235Z,22.27
2022-09-13T12:08:35.283Z,21.82
2022-09-13T12:14:11.148Z,21.88
2022-09-13T12:19:38.299Z,22.35
2022-09-13T12:24:50.301Z,21.53
2022-09-13T12:30:10.428Z,21.02
2022-09-13T12:35:32.888Z,20.18
2022-09-13T12:41:15.158Z,19.82
2022-09-13T12:46:47.037Z,19.94
2022-09-13T12:52:10.916Z,20.14
2022-09-13T12:57:24.370Z,19.69
2022-09-13T13:02:35.028Z,19.78
2022-09-13T13:07:39.271Z,18.84
2022-09-13T13:12:41.864Z,18.91
2022-09-13T13:18:09.924Z,19.40
2022-09-13T13:23:27.403Z,18.69
2022-09-13T13:29:08.299Z,19.25
2022-09-13T13:34:43.851Z,19.92
2022-09-13T13:39:45.801Z,19.39
2022-09-13T13:45:07.899Z,19.96
2022-09-13T13:50:17.541Z,20.32
2022-09-13T13:55:41.443Z,21.00
2022-09-13T14:00:50.547Z,21.63
2022-09-13T14:05:59.022Z,22.39
2022-09-13T14:11:07.542Z,22.92
2022-09-13T14:16:18.832Z,23.05
2022-09-13T14:21:26.872Z,23.61
2022-09-13T14:26:32.858Z,23.67
2022-09-13T14:31:35.585Z,24.01
2022-09-13T14:36:40.117Z,23.85
2022-09-13T14:41:42.042Z,23.43
2022-09-13T14:46:45.111Z,23.41
2022-09-13T14:51:49.152Z,23.46
2022-09-13T14:56:57.968Z,23.05
2022-09-13T15:02:07.891Z,22.26
2022-09-13T15:07:24.884Z,22.29
2022-09-13T15:12:27.975Z,21.26
2022-09-13T15:17:29.995Z,21.33
2022-09-13T15:22:35.201Z,21.96
2022-09-13T15:27:45.660Z,21.83
2022-09-13T15:32:49.697Z,22.29
2022-09-13T15:37:48.639Z,22.46
2022-09-13T15:42:54.399Z,22.45
2022-09-13T15:47:57.305Z,23.05
2022-09-13T15:53:08.982Z,23.67
2022-09-13T15:58:13.618Z,23.83
2022-09-13T16:03:18.375Z,24.42
2022-09-13T16:08:17.614Z,24.83
2022-09-13T16:13:18.457Z,24.95
2022-09-13T16:18:19.396Z,25.26
2022-09-13T16:23:31.635Z,25.08
2022-09-13T16:28:32.908Z,25.40
2022-09-13T16:33:45.806Z,25.87
2022-09-13T16:38:48.332Z,25.86
2022-09-13T16:43:47.875Z,26.28
2022-09-13T16:49:06.404Z,26.61
2022-09-13T16:54:10.653Z,30.31
2022-09-13T16:59:10.155Z,29.68
2022-09-13T17:04:11.745Z,30.14
2022-09-13T17:09:11.068Z,30.58
2022-09-13T17:14:15.815Z,31.58
2022-09-13T17:19:44.564Z,31.61
2022-09-13T17:24:48.106Z,31.49
2022-09-13T17:29:47.257Z,31.41
2022-09-13T17:34:48.752Z,31.99
2022-09-13T17:39:50.981Z,31.97
2022-09-13T17:44:58.194Z,32.79
2022-09-13T17:50:14.964Z,33.64
2022-09-13T17:55:16.900Z,34.11
2022-09-13T18:00:20.756Z,34.85
2022-09-13T18:05:26.760Z,35.41
2022-09-13T18:10:53.033Z,36.47
2022-09-13T18:15:58.444Z,36.69
2022-09-13T18:20:59.898Z,36.95
2022-09-13T18:26:31.948Z,37.56
2022-09-13T18:31:32.391Z,37.34
2022-09-13T18:36:35.117Z,37.83
2022-09-13T18:41:36.482Z,38.02
2022-09-13T18:46:37.623Z,38.34
2022-09-13T18:51:41.566Z,39.12
2022-09-13T18:56:41.618Z,39.29
2022-09-13T19:01:43.179Z,39.56
2022-09-13T19:06:46.062Z,40.27
2022-09-13T19:11:48.349Z,40.30
2022-09-13T19:16:50.698Z,40.53
2022-09-13T19:21:53.391Z,40.85
2022-09-13T19:26:55.656Z,41.24
2022-09-13T19:32:03.536Z,41.63
2022-09-13T19:37:04.401Z,41.59
2022-09-13T19:42:03.640Z,41.80
2022-09-13T19:52:25.328Z,42.37
2022-09-13T19:57:29.639Z,42.08
2022-09-13T20:02:29.147Z,42.33
2022-09-13T20:07:34.019Z,42.70
2022-09-13T20:12:42.237Z,42.62
2022-09-13T20:17:42.113Z,42.71
2022-09-13T20:22:46.206Z,42.93
2022-09-13T20:27:46.639Z,43.26
2022-09-13T20:32:48.193Z,43.09
2022-09-13T20:37:49.375Z,42.99
2022-09-13T20:42:49.499Z,43.26
2022-09-13T20:47:48.818Z,42.98
2022-09-13T20:52:52.542Z,42.66
2022-09-13T20:57:51.812Z,42.16
2022-09-13T21:02:51.526Z,41.55
2022-09-13T21:08:09.739Z,41.85
2022-09-13T21:13:09.677Z,41.62
2022-09-13T21:18:09.802Z,41.59
2022-09-13T21:23:10.870Z,41.96
2022-09-13T21:28:11.064Z,42.00
2022-09-13T21:33:11.623Z,42.07
2022-09-13T21:38:14.406Z,41.59
2022-09-13T21:43:13.477Z,42.27
2022-09-13T21:48:14.470Z,42.20
2022-09-13T21:53:16.199Z,42.39
2022-09-13T21:58:17.199Z,42.45
2022-09-13T22:03:16.137Z,42.45
2022-09-13T22:08:17.362Z,42.54
2022-09-13T22:13:17.209Z,42.39
2022-09-13T22:18:30.003Z,42.46
2022-09-13T22:23:31.149Z,42.71
2022-09-13T22:28:40.361Z,42.56
2022-09-13T22:33:43.775Z,43.83
2022-09-13T22:38:46.159Z,43.68
2022-09-13T22:43:45.150Z,43.60
2022-09-13T22:48:44.953Z,43.69
2022-09-13T22:53:46.866Z,43.81
2022-09-13T22:58:46.754Z,44.00
2022-09-13T23:03:47.123Z,44.37
2022-09-13T23:08:48.612Z,44.69
2022-09-13T23:13:49.210Z,45.05
2022-09-13T23:18:51.751Z,46.14
2022-09-13T23:23:55.591Z,46.07
2022-09-13T23:28:56.981Z,46.06
2022-09-13T23:33:57.869Z,45.90
2022-09-13T23:39:00.224Z,45.60
2022-09-13T23:43:59.094Z,45.99
2022-09-13T23:48:58.455Z,46.40
2022-09-13T23:54:00.759Z,46.63
2022-09-13T23:59:04.949Z,46.29
